createdAt,value
2022-12-14T00:02:48.359Z,46.28
2022-12-14T00:05:50.558Z,46.28
2022-12-14T00:08:54.755Z,46.25
2022-12-14T00:11:56.803Z,46.28
2022-12-14T00:14:58.803Z,46.25
2022-12-14T00:18:00.889Z,46.27
2022-12-14T00:21:04.731Z,46.23
2022-12-14T00:24:06.826Z,46.25
2022-12-14T00:27:08.882Z,46.29
2022-12-14T00:30:15.870Z,46.28
2022-12-14T00:33:17.883Z,46.27
2022-12-14T00:36:20.551Z,46.28
2022-12-14T00:39:22.566Z,46.29
2022-12-14T00:42:24.579Z,46.28
2022-12-14T00:45:26.602Z,46.30
2022-12-14T00:48:29.099Z,46.29
2022-12-14T00:51:31.328Z,46.34
2022-12-14T00:54:33.332Z,46.35
2022-12-14T00:57:35.313Z,46.33
2022-12-14T01:00:37.358Z,46.35
2022-12-14T01:03:39.643Z,46.34
2022-12-14T01:06:42.157Z,46.33
2022-12-14T01:09:44.153Z,46.30
2022-12-14T01:12:46.253Z,46.35
2022-12-14T01:15:48.324Z,46.29
2022-12-14T01:18:50.341Z,46.29
2022-12-14T01:21:53.357Z,46.31
2022-12-14T01:24:55.347Z,46.34
2022-12-14T01:27:57.333Z,46.35
2022-12-14T01:30:59.345Z,46.35
2022-12-14T01:34:01.889Z,46.31
2022-12-14T01:37:04.047Z,46.30
2022-12-14T01:40:06.605Z,46.30
2022-12-14T01:43:15.259Z,46.31
2022-12-14T01:46:35.165Z,46.28
2022-12-14T01:49:43.508Z,46.30
2022-12-14T01:52:48.257Z,46.31
2022-12-14T01:55:54.090Z,46.32
2022-12-14T01:59:00.304Z,46.32
2022-12-14T02:02:06.655Z,46.38
2022-12-14T02:05:10.770Z,46.40
2022-12-14T02:08:13.975Z,46.38
2022-12-14T02:11:23.893Z,46.35
2022-12-14T02:14:26.211Z,46.38
2022-12-14T02:17:29.047Z,46.35
2022-12-14T02:20:40.615Z,46.33
2022-12-14T02:24:05.062Z,46.32
2022-12-14T02:27:19.024Z,46.35
2022-12-14T02:30:28.440Z,46.37
2022-12-14T02:34:02.673Z,46.38
2022-12-14T02:37:14.475Z,46.38
2022-12-14T02:40:38.035Z,46.35
2022-12-14T02:44:00.835Z,46.37
2022-12-14T02:47:15.602Z,46.43
2022-12-14T02:50:24.630Z,46.41
2022-12-14T02:53:30.101Z,46.39
2022-12-14T02:56:37.908Z,46.39
2022-12-14T02:59:41.060Z,46.42
2022-12-14T03:02:45.467Z,46.44
2022-12-14T03:06:25.767Z,46.44
2022-12-14T03:09:30.369Z,46.46
2022-12-14T03:12:33.482Z,46.46
2022-12-14T03:15:40.662Z,46.49
2022-12-14T03:18:49.831Z,46.44
2022-12-14T03:21:58.640Z,46.46
2022-12-14T03:25:08.855Z,46.48
2022-12-14T03:28:20.339Z,46.45
2022-12-14T03:31:57.719Z,46.47
2022-12-14T03:35:16.748Z,46.46
2022-12-14T03:38:35.231Z,46.47
2022-12-14T03:41:59.015Z,46.44
2022-12-14T03:45:07.840Z,46.47
2022-12-14T03:48:35.652Z,46.46
2022-12-14T03:52:08.071Z,46.44
2022-12-14T03:55:25.914Z,46.44
2022-12-14T03:58:33.271Z,46.44
2022-12-14T04:01:49.291Z,46.41
2022-12-14T04:05:07.897Z,46.43
2022-12-14T04:08:26.201Z,46.28
2022-12-14T04:11:52.902Z,46.26
2022-12-14T04:15:29.908Z,46.14
2022-12-14T04:18:59.811Z,46.02
2022-12-14T04:22:09.925Z,45.85
2022-12-14T04:25:47.078Z,45.69
2022-12-14T04:29:18.559Z,45.54
2022-12-14T04:32:26.202Z,45.40
2022-12-14T04:35:39.617Z,45.28
2022-12-14T04:38:44.275Z,45.16
2022-12-14T04:41:50.782Z,45.06
2022-12-14T04:44:58.391Z,44.97
2022-12-14T04:48:29.458Z,44.90
2022-12-14T04:51:44.984Z,45.08
2022-12-14T04:54:56.464Z,45.22
2022-12-14T04:58:07.000Z,45.16
2022-12-14T05:01:30.323Z,45.27
2022-12-14T05:04:57.012Z,45.38
2022-12-14T05:08:23.185Z,45.45
2022-12-14T05:11:52.558Z,45.61
2022-12-14T05:15:27.408Z,45.73
2022-12-14T05:18:29.496Z,45.83
2022-12-14T05:21:49.687Z,45.83
2022-12-14T05:24:51.707Z,45.57
2022-12-14T05:27:53.832Z,45.51
2022-12-14T05:30:55.901Z,45.54
2022-12-14T05:33:57.950Z,45.64
2022-12-14T05:36:59.987Z,45.47
2022-12-14T05:40:02.209Z,45.45
2022-12-14T05:43:06.225Z,45.53
2022-12-14T05:46:09.541Z,45.60
2022-12-14T05:49:11.610Z,45.55
2022-12-14T05:52:13.622Z,45.51
2022-12-14T05:55:15.660Z,45.42
2022-12-14T05:58:18.032Z,45.51
2022-12-14T06:01:20.355Z,45.54
2022-12-14T06:04:22.519Z,45.38
2022-12-14T06:07:28.049Z,45.29
2022-12-14T06:10:30.147Z,45.29
2022-12-14T06:13:32.182Z,45.37
2022-12-14T06:16:34.593Z,45.32
2022-12-14T06:19:36.736Z,45.19
2022-12-14T06:22:44.199Z,45.12
2022-12-14T06:25:54.693Z,45.22
2022-12-14T06:28:57.808Z,45.14
2022-12-14T06:32:01.012Z,45.08
2022-12-14T06:35:03.130Z,45.05
2022-12-14T06:38:05.147Z,45.04
2022-12-14T06:41:08.791Z,45.01
2022-12-14T06:44:14.059Z,44.91
2022-12-14T06:47:16.160Z,44.84
2022-12-14T06:50:18.199Z,44.93
2022-12-14T06:53:20.207Z,44.88
2022-12-14T06:56:24.156Z,44.74
2022-12-14T06:59:26.194Z,44.69
2022-12-14T07:02:28.515Z,44.68
2022-12-14T07:05:30.863Z,44.69
2022-12-14T07:08:34.934Z,44.58
2022-12-14T07:11:36.961Z,44.48
2022-12-14T07:14:38.983Z,44.51
2022-12-14T07:17:41.075Z,44.64
2022-12-14T07:20:44.652Z,44.46
2022-12-14T07:23:48.424Z,44.43
2022-12-14T07:26:50.412Z,44.19
2022-12-14T07:29:52.539Z,44.03
2022-12-14T07:32:54.606Z,43.92
2022-12-14T07:36:08.723Z,43.58
2022-12-14T07:39:16.924Z,43.38
2022-12-14T07:42:18.944Z,43.53
2022-12-14T07:45:21.137Z,43.55
2022-12-14T07:48:23.139Z,43.51
2022-12-14T07:51:36.775Z,43.51
2022-12-14T07:54:38.865Z,43.54
2022-12-14T07:57:40.894Z,43.60
2022-12-14T08:00:42.956Z,43.65
2022-12-14T08:03:48.789Z,43.63
2022-12-14T08:06:50.879Z,43.64
2022-12-14T08:09:52.881Z,43.69
2022-12-14T08:12:54.859Z,43.69
2022-12-14T08:16:01.406Z,43.71
2022-12-14T08:19:03.591Z,43.72
2022-12-14T08:22:05.612Z,43.68
2022-12-14T08:25:08.394Z,43.48
2022-12-14T08:28:11.242Z,43.49
2022-12-14T08:31:15.937Z,43.67
2022-12-14T08:34:22.536Z,43.76
2022-12-14T08:37:24.562Z,43.61
2022-12-14T08:40:26.935Z,43.88
2022-12-14T08:43:29.378Z,43.91
2022-12-14T08:46:33.815Z,44.02
2022-12-14T08:49:35.890Z,44.24
2022-12-14T08:52:38.465Z,44.22
2022-12-14T08:55:40.565Z,43.51
2022-12-14T08:58:42.920Z,43.24
2022-12-14T09:01:45.070Z,42.97
2022-12-14T09:04:47.223Z,43.27
2022-12-14T09:07:49.247Z,43.06
2022-12-14T09:10:52.211Z,42.83
2022-12-14T09:13:55.552Z,42.33
2022-12-14T09:16:58.836Z,41.29
2022-12-14T09:20:01.002Z,41.96
2022-12-14T09:23:03.069Z,42.48
2022-12-14T09:26:22.692Z,42.79
2022-12-14T09:29:24.810Z,42.83
2022-12-14T09:32:29.495Z,42.90
2022-12-14T09:35:31.483Z,43.04
2022-12-14T09:38:35.987Z,43.22
2022-12-14T09:41:50.539Z,42.97
2022-12-14T09:45:10.822Z,42.92
2022-12-14T09:48:21.879Z,43.17
2022-12-14T09:51:35.483Z,43.24
2022-12-14T09:54:38.956Z,42.98
2022-12-14T09:57:43.323Z,42.86
2022-12-14T10:01:03.281Z,42.98
2022-12-14T10:04:30.127Z,43.17
2022-12-14T10:07:44.464Z,43.11
2022-12-14T10:10:59.775Z,42.95
2022-12-14T10:14:16.011Z,42.80
2022-12-14T10:17:53.316Z,42.91
2022-12-14T10:21:03.451Z,43.06
2022-12-14T10:24:07.351Z,42.95
2022-12-14T10:27:13.626Z,42.80
2022-12-14T10:30:19.547Z,42.84
2022-12-14T10:33:26.517Z,42.92
2022-12-14T10:36:39.470Z,42.92
2022-12-14T10:39:54.020Z,42.74
2022-12-14T10:43:28.116Z,42.58
2022-12-14T10:47:10.687Z,42.82
2022-12-14T10:50:52.205Z,42.97
2022-12-14T10:54:14.991Z,42.72
2022-12-14T10:57:23.411Z,42.66
2022-12-14T11:00:25.628Z,42.65
2022-12-14T11:03:29.007Z,42.89
2022-12-14T11:06:31.319Z,43.00
2022-12-14T11:09:33.766Z,42.68
2022-12-14T11:12:36.036Z,42.45
2022-12-14T11:15:40.146Z,42.95
2022-12-14T11:18:42.218Z,43.82
2022-12-14T11:21:45.232Z,44.38
2022-12-14T11:24:52.093Z,44.77
2022-12-14T11:27:54.585Z,44.72
2022-12-14T11:31:01.567Z,44.81
2022-12-14T11:34:05.823Z,44.70
2022-12-14T11:37:34.049Z,44.74
2022-12-14T11:40:38.034Z,44.36
2022-12-14T11:43:40.225Z,44.50
2022-12-14T11:46:48.302Z,44.76
2022-12-14T11:49:54.884Z,45.03
2022-12-14T11:53:11.063Z,44.92
2022-12-14T11:56:16.875Z,45.07
2022-12-14T11:59:19.578Z,46.08
2022-12-14T12:02:24.248Z,47.36
2022-12-14T12:05:27.526Z,47.09
2022-12-14T12:08:34.732Z,46.40
2022-12-14T12:11:36.953Z,46.55
2022-12-14T12:14:39.651Z,47.20
2022-12-14T12:17:45.095Z,47.72
2022-12-14T12:21:03.153Z,48.21
2022-12-14T12:24:22.254Z,48.08
2022-12-14T12:27:25.651Z,48.29
2022-12-14T12:30:32.086Z,48.79
2022-12-14T12:33:48.427Z,48.86
2022-12-14T12:37:24.862Z,48.76
2022-12-14T12:40:25.716Z,49.50
2022-12-14T12:43:39.936Z,51.15
2022-12-14T12:47:23.117Z,49.41
2022-12-14T12:50:42.339Z,48.76
2022-12-14T12:54:01.322Z,47.34
2022-12-14T12:57:06.976Z,45.41
2022-12-14T13:00:19.291Z,44.43
2022-12-14T13:03:37.483Z,44.70
2022-12-14T13:07:08.842Z,44.93
2022-12-14T13:10:22.678Z,44.94
2022-12-14T13:13:29.507Z,44.78
2022-12-14T13:16:37.913Z,44.79
2022-12-14T13:19:52.672Z,44.91
2022-12-14T13:23:05.722Z,44.87
2022-12-14T13:26:58.115Z,44.45
2022-12-14T13:30:19.370Z,39.32
2022-12-14T13:33:45.887Z,41.73
2022-12-14T13:37:15.450Z,40.13
2022-12-14T13:40:35.700Z,41.16
2022-12-14T13:44:01.917Z,41.55
2022-12-14T13:47:06.027Z,41.83
2022-12-14T13:50:36.753Z,41.83
2022-12-14T13:53:50.321Z,42.10
2022-12-14T13:57:02.769Z,42.34
2022-12-14T14:00:05.159Z,42.58
2022-12-14T14:03:29.076Z,42.65
2022-12-14T14:06:37.985Z,42.75
2022-12-14T14:09:45.747Z,42.84
2022-12-14T14:12:47.839Z,42.94
2022-12-14T14:16:26.470Z,43.10
2022-12-14T14:19:24.329Z,43.13
2022-12-14T14:22:28.594Z,43.40
2022-12-14T14:25:33.619Z,43.45
2022-12-14T14:28:37.555Z,43.58
2022-12-14T14:31:54.809Z,43.77
2022-12-14T14:34:57.239Z,43.94
2022-12-14T14:38:22.368Z,44.07
2022-12-14T14:41:41.806Z,44.05
2022-12-14T14:44:53.061Z,44.14
2022-12-14T14:47:58.077Z,44.21
2022-12-14T14:51:25.374Z,44.36
2022-12-14T14:58:22.338Z,44.51
2022-12-14T15:01:29.607Z,44.64
2022-12-14T15:04:45.878Z,44.70
2022-12-14T15:07:48.287Z,44.79
2022-12-14T15:10:51.422Z,44.87
2022-12-14T15:14:23.115Z,44.96
2022-12-14T15:17:25.622Z,44.96
2022-12-14T15:20:29.543Z,45.06
2022-12-14T15:23:42.893Z,45.08
2022-12-14T15:26:44.998Z,45.21
2022-12-14T15:29:49.411Z,45.19
2022-12-14T15:33:17.877Z,45.32
2022-12-14T15:36:22.867Z,45.41
2022-12-14T15:39:40.001Z,45.42
2022-12-14T15:42:53.213Z,45.47
2022-12-14T15:46:04.061Z,45.55
2022-12-14T15:49:20.639Z,45.54
2022-12-14T15:52:29.711Z,45.57
2022-12-14T15:55:38.184Z,45.63
2022-12-14T15:58:41.067Z,45.64
2022-12-14T16:02:07.178Z,45.71
2022-12-14T16:05:16.305Z,45.72
2022-12-14T16:08:18.670Z,45.70
2022-12-14T16:11:28.524Z,45.73
2022-12-14T16:14:45.336Z,45.80
2022-12-14T16:17:47.678Z,45.80
2022-12-14T16:21:02.237Z,45.84
2022-12-14T16:24:23.253Z,45.85
2022-12-14T16:27:27.791Z,45.83
2022-12-14T16:30:32.583Z,45.86
2022-12-14T16:33:36.664Z,45.76
2022-12-14T16:36:38.777Z,45.71
2022-12-14T16:39:47.110Z,45.68
2022-12-14T16:42:49.555Z,45.70
2022-12-14T16:46:04.171Z,45.83
2022-12-14T16:49:41.892Z,45.90
2022-12-14T16:52:44.327Z,45.96
2022-12-14T16:56:15.436Z,46.06
2022-12-14T16:59:36.839Z,46.14
2022-12-14T17:02:46.056Z,46.06
2022-12-14T17:05:55.435Z,46.08
2022-12-14T17:08:57.451Z,46.17
2022-12-14T17:12:02.404Z,46.14
2022-12-14T17:15:04.827Z,46.30
2022-12-14T17:18:09.668Z,46.44
2022-12-14T17:21:22.491Z,46.41
2022-12-14T17:24:24.740Z,46.45
2022-12-14T17:27:27.104Z,46.44
2022-12-14T17:30:29.210Z,46.42
2022-12-14T17:33:32.107Z,46.35
2022-12-14T17:36:34.429Z,46.46
2022-12-14T17:39:38.254Z,46.41
2022-12-14T17:42:41.271Z,46.42
2022-12-14T17:45:43.376Z,46.40
2022-12-14T17:48:45.493Z,46.14
2022-12-14T17:51:47.569Z,46.10
2022-12-14T17:54:49.650Z,46.15
2022-12-14T17:57:52.095Z,46.13
2022-12-14T18:00:59.872Z,46.60
2022-12-14T18:04:02.092Z,46.86
2022-12-14T18:07:04.184Z,46.81
2022-12-14T18:10:06.618Z,46.86
2022-12-14T18:13:10.193Z,46.75
2022-12-14T18:16:15.438Z,46.64
2022-12-14T18:19:17.962Z,46.60
2022-12-14T18:22:20.046Z,46.62
2022-12-14T18:25:34.705Z,46.54
2022-12-14T18:28:36.828Z,46.57
2022-12-14T18:31:39.934Z,46.57
2022-12-14T18:34:41.961Z,46.56
2022-12-14T18:37:43.968Z,46.58
2022-12-14T18:40:53.808Z,46.57
2022-12-14T18:43:56.002Z,46.49
2022-12-14T18:47:14.695Z,46.54
2022-12-14T18:50:21.024Z,46.51
2022-12-14T18:53:24.264Z,46.56
2022-12-14T18:56:28.099Z,46.51
2022-12-14T18:59:30.703Z,46.55
2022-12-14T19:02:32.892Z,46.59
2022-12-14T19:05:35.117Z,46.60
2022-12-14T19:08:37.356Z,46.57
2022-12-14T19:11:44.307Z,46.67
2022-12-14T19:14:50.953Z,46.67
2022-12-14T19:17:53.404Z,46.64
2022-12-14T19:20:55.397Z,46.69
2022-12-14T19:23:59.347Z,46.72
2022-12-14T19:27:02.412Z,46.76
2022-12-14T19:30:06.668Z,46.79
2022-12-14T19:33:10.243Z,46.76
2022-12-14T19:36:12.799Z,46.77
2022-12-14T19:39:14.904Z,46.80
2022-12-14T19:42:18.192Z,46.80
2022-12-14T19:45:20.295Z,46.76
2022-12-14T19:48:22.497Z,46.73
2022-12-14T19:51:24.585Z,46.75
2022-12-14T19:54:26.857Z,46.76
2022-12-14T19:57:29.087Z,46.76
2022-12-14T20:00:31.380Z,46.74
2022-12-14T20:03:33.759Z,46.70
2022-12-14T20:06:36.203Z,46.75
2022-12-14T20:09:38.311Z,46.74
2022-12-14T20:12:40.350Z,46.79
2022-12-14T20:15:52.095Z,46.74
2022-12-14T20:18:54.590Z,46.80
2022-12-14T20:21:56.593Z,46.76
2022-12-14T20:24:58.619Z,46.80
2022-12-14T20:28:00.665Z,46.79
2022-12-14T20:31:06.132Z,46.79
2022-12-14T20:34:09.391Z,46.82
2022-12-14T20:37:11.472Z,46.75
2022-12-14T20:40:13.603Z,46.64
2022-12-14T20:43:15.680Z,46.68
2022-12-14T20:46:26.093Z,46.73
2022-12-14T20:49:32.465Z,46.71
2022-12-14T20:52:34.466Z,46.75
2022-12-14T20:55:36.548Z,46.73
2022-12-14T20:58:38.623Z,46.74
2022-12-14T21:01:42.635Z,46.71
2022-12-14T21:04:44.924Z,46.64
2022-12-14T21:07:46.941Z,46.80
2022-12-14T21:10:48.963Z,47.13
2022-12-14T21:13:51.044Z,47.17
2022-12-14T21:16:53.611Z,47.22
2022-12-14T21:19:57.775Z,47.24
2022-12-14T21:22:59.814Z,47.23
2022-12-14T21:26:04.953Z,47.25
2022-12-14T21:29:12.577Z,47.21
2022-12-14T21:32:15.283Z,47.28
2022-12-14T21:35:18.332Z,47.32
2022-12-14T21:38:20.382Z,47.36
2022-12-14T21:41:41.420Z,47.41
2022-12-14T21:44:45.263Z,47.35
2022-12-14T21:47:47.258Z,47.38
2022-12-14T21:50:49.275Z,47.40
2022-12-14T21:53:59.889Z,47.43
2022-12-14T21:57:21.197Z,47.44
2022-12-14T22:00:23.190Z,47.45
2022-12-14T22:03:25.240Z,47.50
2022-12-14T22:06:27.272Z,47.46
2022-12-14T22:09:29.359Z,47.44
2022-12-14T22:12:31.466Z,47.44
2022-12-14T22:15:33.477Z,47.41
2022-12-14T22:18:35.491Z,47.39
2022-12-14T22:21:39.126Z,47.41
2022-12-14T22:24:41.415Z,47.46
2022-12-14T22:27:43.497Z,47.42
2022-12-14T22:30:52.117Z,47.42
2022-12-14T22:33:55.066Z,47.42
2022-12-14T22:36:57.045Z,47.46
2022-12-14T22:39:59.258Z,47.45
2022-12-14T22:43:01.352Z,47.41
2022-12-14T22:46:04.622Z,47.47
2022-12-14T22:49:07.004Z,47.44
2022-12-14T22:52:09.390Z,47.42
2022-12-14T22:55:11.854Z,47.44
2022-12-14T22:58:15.660Z,47.40
2022-12-14T23:01:19.454Z,47.42
2022-12-14T23:04:21.669Z,47.43
2022-12-14T23:07:23.736Z,47.41
2022-12-14T23:10:44.547Z,47.41
2022-12-14T23:14:10.808Z,47.43
2022-12-14T23:17:31.743Z,47.43
2022-12-14T23:20:52.687Z,47.47
2022-12-14T23:24:13.537Z,47.41
2022-12-14T23:27:34.297Z,47.38
2022-12-14T23:30:55.202Z,47.44
2022-12-14T23:34:16.052Z,47.38
2022-12-14T23:37:36.834Z,47.45
2022-12-14T23:40:57.715Z,47.41
2022-12-14T23:44:18.622Z,47.43
2022-12-14T23:47:39.424Z,47.44
2022-12-14T23:51:00.205Z,47.42
2022-12-14T23:54:21.000Z,47.45
2022-12-14T23:57:41.813Z,47.42
